createdAt,value
2019-01-21T00:01:53.331Z,-5.20
2019-01-21T00:03:58.305Z,-5.20
2019-01-21T00:06:03.188Z,-5.30
2019-01-21T00:08:08.329Z,-5.30
2019-01-21T00:10:13.329Z,-5.30
2019-01-21T00:12:18.722Z,-5.20
2019-01-21T00:14:23.637Z,-5.30
2019-01-21T00:16:28.925Z,-5.30
2019-01-21T00:18:34.235Z,-5.20
2019-01-21T00:20:39.537Z,-5.30
2019-01-21T00:22:44.349Z,-5.30
2019-01-21T00:24:49.211Z,-5.30
2019-01-21T00:26:54.095Z,-5.30
2019-01-21T00:28:58.930Z,-5.30
2019-01-21T00:31:03.824Z,-5.30
2019-01-21T00:33:09.166Z,-5.40
2019-01-21T00:35:14.054Z,-5.30
2019-01-21T00:37:18.943Z,-5.30
2019-01-21T00:39:27.992Z,-5.20
2019-01-21T00:41:33.254Z,-5.30
2019-01-21T00:43:38.109Z,-5.40
2019-01-21T00:45:43.120Z,-5.50
2019-01-21T00:47:48.373Z,-5.50
2019-01-21T00:49:53.233Z,-5.50
2019-01-21T00:51:58.005Z,-5.50
2019-01-21T00:54:02.877Z,-5.50
2019-01-21T00:56:07.795Z,-5.60
2019-01-21T00:58:13.229Z,-5.60
2019-01-21T01:00:21.538Z,-5.60
2019-01-21T01:02:26.740Z,-5.60
2019-01-21T01:04:31.982Z,-5.60
2019-01-21T01:06:36.898Z,-5.40
2019-01-21T01:08:41.734Z,-5.20
2019-01-21T01:10:47.096Z,-5.20
2019-01-21T01:12:52.316Z,-5.20
2019-01-21T01:14:57.173Z,-5.20
2019-01-21T01:17:02.510Z,-5.30
2019-01-21T01:19:07.352Z,-5.40
2019-01-21T01:21:12.175Z,-5.40
2019-01-21T01:23:17.366Z,-5.30
2019-01-21T01:25:22.226Z,-5.40
2019-01-21T01:27:27.079Z,-5.40
2019-01-21T01:29:32.888Z,-5.50
2019-01-21T01:31:37.806Z,-5.40
2019-01-21T01:33:45.847Z,-5.40
2019-01-21T01:35:50.837Z,-5.40
2019-01-21T01:37:56.386Z,-5.50
2019-01-21T01:40:01.699Z,-5.50
2019-01-21T01:42:07.030Z,-5.60
2019-01-21T01:44:13.012Z,-5.50
2019-01-21T01:46:18.745Z,-5.50
2019-01-21T01:48:24.261Z,-5.60
2019-01-21T01:50:29.643Z,-5.60
2019-01-21T01:52:34.988Z,-5.50
2019-01-21T01:54:40.390Z,-5.70
2019-01-21T01:56:46.031Z,-5.70
2019-01-21T01:58:51.310Z,-5.60
2019-01-21T02:00:57.719Z,-5.70
2019-01-21T02:03:03.069Z,-5.60
2019-01-21T02:05:11.116Z,-5.70
2019-01-21T02:07:16.606Z,-5.70
2019-01-21T02:09:22.229Z,-5.60
2019-01-21T02:11:28.721Z,-5.60
2019-01-21T02:13:34.725Z,-5.80
2019-01-21T02:15:40.134Z,-5.80
2019-01-21T02:17:51.834Z,-5.70
2019-01-21T02:19:55.589Z,-5.80
2019-01-21T02:22:01.432Z,-5.60
2019-01-21T02:24:09.021Z,-5.80
2019-01-21T02:26:22.337Z,-5.80
2019-01-21T02:29:09.885Z,-5.90
2019-01-21T02:31:50.503Z,-5.80
2019-01-21T02:34:54.774Z,-5.80
2019-01-21T02:37:52.616Z,-5.90
2019-01-21T02:40:10.185Z,-5.80
2019-01-21T02:42:34.547Z,-5.90
2019-01-21T02:45:10.315Z,-6.00
2019-01-21T02:47:45.592Z,-6.00
2019-01-21T02:50:53.567Z,-6.00
2019-01-21T02:53:27.051Z,-5.80
2019-01-21T02:56:02.865Z,-5.90
2019-01-21T02:58:30.769Z,-5.80
2019-01-21T03:00:54.567Z,-5.80
2019-01-21T03:03:59.449Z,-6.00
2019-01-21T03:06:20.104Z,-6.00
2019-01-21T03:08:58.230Z,-6.00
2019-01-21T03:11:29.958Z,-6.10
2019-01-21T03:13:47.492Z,-6.00
2019-01-21T03:16:31.168Z,-5.80
2019-01-21T03:19:16.947Z,-5.80
2019-01-21T03:22:16.872Z,-5.80
2019-01-21T03:25:07.276Z,-5.80
2019-01-21T03:27:47.651Z,-6.00
2019-01-21T03:30:39.002Z,-6.10
2019-01-21T03:33:40.269Z,-6.10
2019-01-21T03:36:14.759Z,-6.10
2019-01-21T03:38:52.378Z,-6.10
2019-01-21T03:41:09.953Z,-6.20
2019-01-21T03:43:45.081Z,-6.20
2019-01-21T03:46:55.126Z,-6.10
2019-01-21T03:49:32.494Z,-6.20
2019-01-21T03:52:39.630Z,-6.20
2019-01-21T03:54:54.430Z,-6.20
2019-01-21T03:57:21.108Z,-6.30
2019-01-21T04:00:08.296Z,-6.30
2019-01-21T04:02:44.305Z,-6.30
2019-01-21T04:07:41.600Z,-6.30
2019-01-21T04:10:27.397Z,-6.30
2019-01-21T04:13:25.445Z,-6.30
2019-01-21T04:22:13.451Z,-6.40
2019-01-21T04:24:54.353Z,-6.40
2019-01-21T04:27:45.671Z,-6.40
2019-01-21T04:30:40.385Z,-6.50
2019-01-21T04:33:19.468Z,-6.40
2019-01-21T04:41:45.431Z,-6.30
2019-01-21T04:44:47.794Z,-6.30
2019-01-21T04:50:53.003Z,-6.40
2019-01-21T04:53:29.050Z,-6.30
2019-01-21T04:55:51.910Z,-6.20
2019-01-21T04:58:50.643Z,-6.30
2019-01-21T05:01:35.493Z,-6.30
2019-01-21T05:04:25.479Z,-6.30
2019-01-21T05:07:23.769Z,-6.30
2019-01-21T05:10:14.151Z,-6.40
2019-01-21T05:13:08.899Z,-6.40
2019-01-21T05:15:55.399Z,-6.30
2019-01-21T05:18:31.621Z,-6.40
2019-01-21T05:21:30.695Z,-6.60
2019-01-21T05:24:12.073Z,-6.60
2019-01-21T05:26:31.689Z,-6.60
2019-01-21T05:29:16.076Z,-6.30
2019-01-21T05:31:45.061Z,-6.30
2019-01-21T05:34:32.458Z,-6.30
2019-01-21T05:36:59.635Z,-6.30
2019-01-21T05:40:03.722Z,-6.40
2019-01-21T05:42:42.714Z,-6.40
2019-01-21T05:45:35.143Z,-6.50
2019-01-21T05:48:16.838Z,-6.50
2019-01-21T05:50:57.610Z,-6.60
2019-01-21T05:53:46.323Z,-6.50
2019-01-21T05:56:24.219Z,-6.60
2019-01-21T05:59:23.845Z,-6.60
2019-01-21T06:02:18.295Z,-6.60
2019-01-21T06:05:04.906Z,-6.60
2019-01-21T06:07:36.794Z,-6.60
2019-01-21T06:10:12.285Z,-6.60
2019-01-21T06:13:01.012Z,-6.50
2019-01-21T06:15:39.055Z,-6.60
2019-01-21T06:18:29.503Z,-6.60
2019-01-21T06:21:17.167Z,-6.70
2019-01-21T06:24:08.666Z,-6.70
2019-01-21T06:27:00.358Z,-6.40
2019-01-21T06:29:16.837Z,-6.40
2019-01-21T06:31:51.157Z,-6.40
2019-01-21T06:34:32.396Z,-6.50
2019-01-21T06:37:04.343Z,-6.50
2019-01-21T06:40:14.773Z,-6.50
2019-01-21T06:42:53.683Z,-6.60
2019-01-21T06:45:33.789Z,-6.60
2019-01-21T06:48:22.117Z,-6.60
2019-01-21T06:51:08.676Z,-6.50
2019-01-21T06:54:03.448Z,-6.50
2019-01-21T06:56:47.589Z,-6.60
2019-01-21T06:59:51.601Z,-6.70
2019-01-21T07:02:37.553Z,-6.70
2019-01-21T07:05:29.071Z,-6.80
2019-01-21T07:08:17.459Z,-6.70
2019-01-21T07:10:47.588Z,-6.80
2019-01-21T07:13:27.298Z,-6.80
2019-01-21T07:16:12.011Z,-6.60
2019-01-21T07:19:20.562Z,-6.70
2019-01-21T07:21:57.780Z,-6.80
2019-01-21T07:24:27.625Z,-6.80
2019-01-21T07:27:04.541Z,-6.80
2019-01-21T07:29:51.879Z,-6.70
2019-01-21T07:32:08.901Z,-6.60
2019-01-21T07:34:51.803Z,-6.60
2019-01-21T07:37:40.425Z,-6.50
2019-01-21T07:40:26.295Z,-6.60
2019-01-21T07:43:26.953Z,-6.70
2019-01-21T07:46:05.731Z,-6.50
2019-01-21T07:48:54.180Z,-6.30
2019-01-21T07:51:25.855Z,-6.50
2019-01-21T07:54:13.892Z,-6.50
2019-01-21T07:56:58.068Z,-6.50
2019-01-21T07:59:45.875Z,-6.50
2019-01-21T08:02:38.127Z,-6.50
2019-01-21T08:05:25.593Z,-6.20
2019-01-21T08:07:59.517Z,-6.10
2019-01-21T08:10:53.217Z,-6.10
2019-01-21T08:13:31.528Z,-6.10
2019-01-21T08:16:06.889Z,-6.00
2019-01-21T08:18:46.949Z,-5.90
2019-01-21T08:21:18.147Z,-5.80
2019-01-21T08:24:12.780Z,-5.60
2019-01-21T08:26:57.490Z,-5.30
2019-01-21T08:29:30.537Z,-3.80
2019-01-21T08:31:54.403Z,-1.70
2019-01-21T08:34:30.402Z,-0.30
2019-01-21T08:37:22.340Z,0.40
2019-01-21T08:40:25.816Z,0.70
2019-01-21T08:43:27.789Z,0.40
2019-01-21T08:46:16.745Z,-0.10
2019-01-21T08:49:01.288Z,-0.60
2019-01-21T08:51:31.712Z,-0.90
2019-01-21T08:54:20.280Z,-1.20
2019-01-21T08:57:08.783Z,-1.10
2019-01-21T08:59:54.293Z,-0.40
2019-01-21T09:02:21.271Z,-0.10
2019-01-21T09:05:05.339Z,0.20
2019-01-21T09:07:41.774Z,0.20
2019-01-21T09:10:03.627Z,0.50
2019-01-21T09:12:49.902Z,1.60
2019-01-21T09:15:16.226Z,2.30
2019-01-21T09:18:07.955Z,2.60
2019-01-21T09:20:42.120Z,2.40
2019-01-21T09:23:15.008Z,2.50
2019-01-21T09:26:07.393Z,3.10
2019-01-21T09:28:51.749Z,3.70
2019-01-21T09:31:29.155Z,4.70
2019-01-21T09:34:04.350Z,5.40
2019-01-21T09:36:25.774Z,5.80
2019-01-21T09:42:20.530Z,6.40
2019-01-21T09:44:37.463Z,6.40
2019-01-21T09:46:49.727Z,6.40
2019-01-21T09:49:21.164Z,5.40
2019-01-21T09:51:38.631Z,5.90
2019-01-21T09:53:52.909Z,6.50
2019-01-21T10:38:26.955Z,6.30
2019-01-21T10:40:44.214Z,6.20
2019-01-21T10:43:16.398Z,6.40
2019-01-21T10:45:51.792Z,6.80
2019-01-21T10:48:27.711Z,6.40
2019-01-21T10:51:03.784Z,6.90
2019-01-21T10:53:57.917Z,6.60
2019-01-21T10:56:31.011Z,6.50
2019-01-21T11:01:59.147Z,6.00
2019-01-21T11:04:29.377Z,5.80
2019-01-21T11:07:02.796Z,6.00
2019-01-21T11:09:38.539Z,6.20
2019-01-21T11:12:20.267Z,6.10
2019-01-21T11:14:49.841Z,6.00
2019-01-21T11:17:40.129Z,6.30
2019-01-21T11:20:25.927Z,5.90
2019-01-21T11:22:56.240Z,6.10
2019-01-21T11:26:01.274Z,5.00
2019-01-21T11:28:18.155Z,5.60
2019-01-21T11:31:15.297Z,5.90
2019-01-21T11:34:04.188Z,5.80
2019-01-21T11:37:07.797Z,5.50
2019-01-21T11:39:42.357Z,5.00
2019-01-21T11:42:17.858Z,5.00
2019-01-21T11:45:00.702Z,4.50
2019-01-21T11:47:53.954Z,4.40
2019-01-21T11:50:53.857Z,4.30
2019-01-21T11:53:14.612Z,4.20
2019-01-21T11:55:53.268Z,3.80
2019-01-21T11:58:33.262Z,3.90
2019-01-21T12:00:52.584Z,3.50
2019-01-21T12:03:38.216Z,3.50
2019-01-21T12:06:12.945Z,3.30
2019-01-21T12:08:41.872Z,3.10
2019-01-21T12:11:20.191Z,2.90
2019-01-21T12:14:17.651Z,2.90
2019-01-21T12:17:11.084Z,2.90
2019-01-21T12:19:41.978Z,2.80
2019-01-21T12:22:33.856Z,2.60
2019-01-21T12:24:46.971Z,2.70
2019-01-21T12:27:38.645Z,2.90
2019-01-21T12:30:03.089Z,2.60
2019-01-21T12:32:41.088Z,2.70
2019-01-21T12:35:14.697Z,2.70
2019-01-21T12:37:50.144Z,2.70
2019-01-21T12:40:43.917Z,2.60
2019-01-21T12:43:38.622Z,2.60
2019-01-21T12:46:27.266Z,2.60
2019-01-21T12:48:51.687Z,2.50
2019-01-21T12:51:36.116Z,2.60
2019-01-21T12:54:06.934Z,2.70
2019-01-21T12:57:01.869Z,2.50
2019-01-21T12:59:33.307Z,2.60
2019-01-21T13:01:50.919Z,2.40
2019-01-21T13:04:23.657Z,2.40
2019-01-21T13:07:12.364Z,2.40
2019-01-21T13:09:29.829Z,2.40
2019-01-21T13:11:58.428Z,2.40
2019-01-21T13:14:43.901Z,2.30
2019-01-21T13:17:06.277Z,2.30
2019-01-21T13:19:47.389Z,2.20
2019-01-21T13:22:23.531Z,2.20
2019-01-21T13:24:45.057Z,2.20
2019-01-21T13:27:14.927Z,2.10
2019-01-21T13:29:47.321Z,2.10
2019-01-21T13:32:18.737Z,2.20
2019-01-21T13:34:58.036Z,2.20
2019-01-21T13:37:38.352Z,2.10
2019-01-21T13:40:05.241Z,2.20
2019-01-21T13:42:52.097Z,2.10
2019-01-21T13:45:35.321Z,2.10
2019-01-21T13:48:43.935Z,2.10
2019-01-21T13:51:30.342Z,2.10
2019-01-21T13:54:14.794Z,2.10
2019-01-21T13:56:41.690Z,1.90
2019-01-21T13:59:22.651Z,2.00
2019-01-21T14:01:55.893Z,2.00
2019-01-21T14:04:27.900Z,1.90
2019-01-21T14:07:22.557Z,1.90
2019-01-21T14:10:12.841Z,1.90
2019-01-21T14:12:26.398Z,2.00
2019-01-21T14:15:21.258Z,1.90
2019-01-21T14:18:33.662Z,1.90
2019-01-21T14:21:17.156Z,1.80
2019-01-21T14:23:45.287Z,1.70
2019-01-21T14:26:26.750Z,1.80
2019-01-21T14:29:14.701Z,1.70
2019-01-21T14:32:06.752Z,1.70
2019-01-21T14:34:28.776Z,1.60
2019-01-21T14:37:06.771Z,1.60
2019-01-21T14:39:50.926Z,1.60
2019-01-21T14:42:32.205Z,1.50
2019-01-21T14:45:14.379Z,1.50
2019-01-21T14:47:58.963Z,1.50
2019-01-21T14:50:32.792Z,1.40
2019-01-21T14:53:26.751Z,1.30
2019-01-21T14:56:20.084Z,1.20
2019-01-21T14:58:55.339Z,1.30
2019-01-21T15:01:40.931Z,1.20
2019-01-21T15:04:34.930Z,1.20
2019-01-21T15:07:17.986Z,1.10
2019-01-21T15:10:07.548Z,1.10
2019-01-21T15:12:54.582Z,1.00
2019-01-21T15:15:38.704Z,1.00
2019-01-21T15:18:07.618Z,0.90
2019-01-21T15:20:22.478Z,0.90
2019-01-21T15:23:09.230Z,0.60
2019-01-21T15:25:42.038Z,0.80
2019-01-21T15:28:13.283Z,0.80
2019-01-21T15:31:05.083Z,0.70
2019-01-21T15:33:31.966Z,0.70
2019-01-21T15:36:17.010Z,0.60
2019-01-21T15:38:50.521Z,0.50
2019-01-21T15:41:23.819Z,0.40
2019-01-21T15:43:47.329Z,0.40
2019-01-21T15:46:15.369Z,0.40
2019-01-21T15:48:44.061Z,0.40
2019-01-21T15:51:42.663Z,0.30
2019-01-21T15:54:21.129Z,0.20
2019-01-21T15:57:22.131Z,0.20
2019-01-21T16:00:12.845Z,0.00
2019-01-21T16:02:58.161Z,0.00
2019-01-21T16:05:14.977Z,-0.10
2019-01-21T16:07:47.445Z,-0.10
2019-01-21T16:10:54.020Z,-0.20
2019-01-21T16:13:40.620Z,-0.30
2019-01-21T16:16:12.333Z,-0.40
2019-01-21T16:18:26.493Z,-0.50
2019-01-21T16:20:58.717Z,-0.50
2019-01-21T16:24:08.321Z,-0.60
2019-01-21T16:26:45.195Z,-0.60
2019-01-21T16:29:13.316Z,-0.70
2019-01-21T16:32:00.724Z,-0.80
2019-01-21T16:34:49.129Z,-0.90
2019-01-21T16:37:23.049Z,-1.00
2019-01-21T16:40:35.038Z,-1.00
2019-01-21T16:42:40.029Z,-1.10
2019-01-21T16:44:46.615Z,-1.20
2019-01-21T16:46:51.475Z,-1.20
2019-01-21T16:48:56.387Z,-1.30
2019-01-21T16:51:01.248Z,-1.30
2019-01-21T16:53:06.122Z,-1.30
2019-01-21T16:55:11.144Z,-1.40
2019-01-21T16:57:16.112Z,-1.40
2019-01-21T16:59:20.911Z,-1.40
2019-01-21T17:01:26.739Z,-1.40
2019-01-21T17:03:31.957Z,-1.50
2019-01-21T17:05:38.275Z,-1.50
2019-01-21T17:07:43.122Z,-1.50
2019-01-21T17:09:48.186Z,-1.50
2019-01-21T17:12:25.831Z,-1.60
2019-01-21T17:14:41.636Z,-1.60
2019-01-21T17:28:59.197Z,-1.80
2019-01-21T17:34:49.330Z,-1.90
2019-01-21T17:36:54.100Z,-1.90
2019-01-21T17:38:59.757Z,-2.00
2019-01-21T17:41:04.799Z,-2.00
2019-01-21T17:43:09.807Z,-2.00
2019-01-21T17:45:17.253Z,-2.10
2019-01-21T17:47:22.346Z,-2.10
2019-01-21T17:49:27.229Z,-2.10
2019-01-21T17:51:34.339Z,-2.10
2019-01-21T17:53:38.888Z,-2.20
2019-01-21T17:55:44.720Z,-2.20
2019-01-21T17:57:49.687Z,-2.20
2019-01-21T17:59:55.886Z,-2.30
2019-01-21T18:02:00.861Z,-2.20
2019-01-21T18:04:05.920Z,-2.20
2019-01-21T18:06:33.857Z,-2.30
2019-01-21T18:08:38.633Z,-2.30
2019-01-21T18:10:43.485Z,-2.30
2019-01-21T18:12:48.513Z,-2.30
2019-01-21T18:14:53.437Z,-2.30
2019-01-21T18:16:58.251Z,-2.30
2019-01-21T18:19:04.512Z,-2.30
2019-01-21T18:21:09.854Z,-2.40
2019-01-21T18:23:25.466Z,-2.40
2019-01-21T18:25:56.234Z,-2.40
2019-01-21T18:28:01.461Z,-2.40
2019-01-21T18:30:09.155Z,-2.40
2019-01-21T18:32:15.491Z,-2.50
2019-01-21T18:34:20.500Z,-2.50
2019-01-21T18:36:25.824Z,-2.60
2019-01-21T18:38:31.007Z,-2.60
2019-01-21T18:40:36.018Z,-2.60
2019-01-21T18:42:41.162Z,-2.60
2019-01-21T18:44:47.975Z,-2.70
2019-01-21T18:46:53.728Z,-2.70
2019-01-21T18:48:59.845Z,-2.70
2019-01-21T18:51:05.931Z,-2.80
2019-01-21T18:53:13.394Z,-2.80
2019-01-21T18:55:19.801Z,-2.70
2019-01-21T18:57:25.521Z,-2.60
2019-01-21T18:59:34.316Z,-2.50
2019-01-21T19:02:34.050Z,-2.50
2019-01-21T19:05:46.735Z,-2.50
2019-01-21T19:07:53.767Z,-2.50
2019-01-21T19:40:11.098Z,-2.50
2019-01-21T19:42:16.318Z,-2.50
2019-01-21T19:44:23.023Z,-2.50
2019-01-21T19:46:44.063Z,-2.60
2019-01-21T19:48:48.615Z,-2.60
2019-01-21T19:51:01.151Z,-2.60
2019-01-21T19:53:08.094Z,-2.60
2019-01-21T20:10:21.351Z,-2.90
2019-01-21T20:13:14.289Z,-3.00
2019-01-21T20:26:45.212Z,-3.20
2019-01-21T20:28:53.475Z,-3.30
2019-01-21T20:30:59.393Z,-3.30
2019-01-21T20:35:48.583Z,-3.40
2019-01-21T20:37:58.350Z,-3.20
2019-01-21T20:40:11.014Z,-3.50
2019-01-21T20:42:35.484Z,-3.50
2019-01-21T20:44:57.040Z,-3.50
2019-01-21T20:47:05.839Z,-3.50
2019-01-21T20:49:15.600Z,-3.50
2019-01-21T20:51:34.397Z,-3.60
2019-01-21T20:53:41.206Z,-3.60
2019-01-21T20:55:49.885Z,-3.70
2019-01-21T20:57:59.731Z,-3.70
2019-01-21T21:00:31.585Z,-3.70
2019-01-21T21:02:38.209Z,-3.70
2019-01-21T21:04:47.048Z,-3.70
2019-01-21T21:06:54.053Z,-3.70
2019-01-21T21:09:09.438Z,-3.80
2019-01-21T21:23:26.922Z,-3.80
2019-01-21T21:25:50.940Z,-3.70
2019-01-21T21:27:58.454Z,-3.80
2019-01-21T21:30:03.692Z,-3.80
2019-01-21T21:32:08.801Z,-3.70
2019-01-21T21:34:14.509Z,-3.70
2019-01-21T21:36:20.081Z,-3.70
2019-01-21T21:38:25.700Z,-3.60
2019-01-21T21:40:31.260Z,-3.60
2019-01-21T21:42:36.653Z,-3.60
2019-01-21T21:44:41.866Z,-3.60
2019-01-21T21:46:47.535Z,-3.70
2019-01-21T21:48:52.837Z,-3.70
2019-01-21T21:50:58.070Z,-3.70
2019-01-21T21:53:03.936Z,-3.80
2019-01-21T21:55:10.173Z,-3.80
2019-01-21T21:57:15.705Z,-3.80
2019-01-21T22:49:53.998Z,-4.30
2019-01-21T22:52:01.676Z,-4.40
2019-01-21T22:54:07.748Z,-4.50
2019-01-21T22:56:13.598Z,-4.50
2019-01-21T22:58:20.535Z,-4.40
2019-01-21T23:39:10.453Z,-4.20
2019-01-21T23:48:42.641Z,-4.20
2019-01-21T23:54:13.296Z,-4.10
